Time;durP1;ratioP1;P1;durP2;ratioP2;P2;SDS_P1;SDS_P2;PMS_P1;PMS_P2;Temp;Humidity;BMP_temperature;BMP_pressure;BME280_temperature;BME280_humidity;BME280_pressure;Samples;Min_cycle;Max_cycle;Signal;HPM_P1;HPM_P2
2021/09/25 00:01:19;;;;;;;4.07;1.92;;;16.70;99.90;;;;;;4891072;29;20033;-73
2021/09/25 00:03:44;;;;;;;5.68;1.95;;;16.80;99.90;;;;;;4890582;29;20058;-74
2021/09/25 00:06:10;;;;;;;3.47;1.33;;;16.70;99.90;;;;;;4890663;29;20033;-74
2021/09/25 00:08:35;;;;;;;2.83;1.85;;;16.80;99.90;;;;;;4891256;29;20032;-75
2021/09/25 00:11:01;;;;;;;4.47;2.25;;;16.80;99.90;;;;;;4890925;29;20041;-73
2021/09/25 00:13:27;;;;;;;5.38;2.58;;;16.80;99.90;;;;;;4890664;29;20039;-72
2021/09/25 00:15:52;;;;;;;5.70;2.00;;;16.80;99.90;;;;;;4890812;29;20065;-74
2021/09/25 00:18:18;;;;;;;6.30;2.88;;;16.80;99.90;;;;;;4890271;29;20041;-73
2021/09/25 00:20:43;;;;;;;6.15;1.95;;;16.80;99.90;;;;;;4890862;29;20043;-77
2021/09/25 00:23:09;;;;;;;3.17;2.00;;;16.70;99.90;;;;;;4890641;29;20062;-73
2021/09/25 00:25:35;;;;;;;2.60;1.48;;;16.70;99.90;;;;;;4890443;29;20037;-74
2021/09/25 00:28:01;;;;;;;4.50;2.60;;;16.60;99.90;;;;;;4891017;29;20459;-72
2021/09/25 00:30:27;;;;;;;5.57;2.33;;;16.70;99.90;;;;;;4890244;29;20036;-73
2021/09/25 00:32:53;;;;;;;9.38;2.00;;;16.60;99.90;;;;;;4889791;29;20033;-73
2021/09/25 00:35:19;;;;;;;8.55;2.80;;;16.60;99.90;;;;;;4890378;29;20039;-74
2021/09/25 00:37:45;;;;;;;3.85;2.28;;;16.60;99.90;;;;;;4890257;29;20032;-73
2021/09/25 00:40:13;;;;;;;5.35;2.88;;;16.50;99.90;;;;;;4890668;29;20033;-74
2021/09/25 00:42:39;;;;;;;3.08;2.08;;;16.50;99.90;;;;;;4890546;29;20455;-75
2021/09/25 00:45:07;;;;;;;8.57;2.83;;;16.50;99.90;;;;;;4889841;29;20117;-73
2021/09/25 00:47:34;;;;;;;12.50;3.00;;;16.50;99.90;;;;;;4890519;29;20092;-74
2021/09/25 00:50:00;;;;;;;8.25;3.35;;;16.50;99.90;;;;;;4890612;29;20029;-73
2021/09/25 00:52:25;;;;;;;5.40;2.88;;;16.40;99.90;;;;;;4890296;29;20108;-75
2021/09/25 00:54:51;;;;;;;19.83;3.50;;;16.40;99.90;;;;;;4890254;29;20033;-74
2021/09/25 00:57:18;;;;;;;8.60;2.58;;;16.40;99.90;;;;;;4890216;29;20025;-73
2021/09/25 00:59:44;;;;;;;9.25;3.28;;;16.40;99.90;;;;;;4889677;29;20044;-76
2021/09/25 01:02:16;;;;;;;13.13;3.22;;;16.30;99.90;;;;;;4873265;29;20096;-73
2021/09/25 01:04:44;;;;;;;4.90;2.25;;;16.30;99.90;;;;;;4889424;29;20060;-73
2021/09/25 01:07:09;;;;;;;6.85;3.00;;;16.30;99.90;;;;;;4890168;29;20037;-74
2021/09/25 01:09:40;;;;;;;5.53;3.50;;;16.20;99.90;;;;;;4890443;29;20048;-74
2021/09/25 01:12:07;;;;;;;5.13;2.95;;;16.20;99.90;;;;;;4873186;29;20029;-73
2021/09/25 01:14:33;;;;;;;7.07;3.97;;;16.20;99.90;;;;;;4890216;29;20037;-73
2021/09/25 01:17:07;;;;;;;7.25;3.25;;;16.20;99.90;;;;;;4889617;29;20140;-74
2021/09/25 01:19:33;;;;;;;6.07;3.47;;;16.20;99.90;;;;;;4890310;29;20118;-72
2021/09/25 01:21:58;;;;;;;8.10;3.65;;;16.20;99.90;;;;;;4890056;29;20037;-72
2021/09/25 01:24:24;;;;;;;10.13;4.20;;;16.20;99.90;;;;;;4890062;29;20033;-72
2021/09/25 01:26:50;;;;;;;11.10;4.60;;;16.20;99.90;;;;;;4889667;29;20029;-74
2021/09/25 01:29:16;;;;;;;5.72;3.05;;;16.30;99.90;;;;;;4890009;29;20069;-75
2021/09/25 01:31:41;;;;;;;16.10;3.85;;;16.10;99.90;;;;;;4889621;29;20049;-73
2021/09/25 01:34:07;;;;;;;11.27;3.20;;;16.10;99.90;;;;;;4889694;29;20375;-74
2021/09/25 01:36:33;;;;;;;6.18;3.42;;;16.10;99.90;;;;;;4890043;29;20444;-74
2021/09/25 01:38:59;;;;;;;6.65;3.28;;;16.10;99.90;;;;;;4890198;29;20388;-73
2021/09/25 01:41:24;;;;;;;9.50;4.22;;;16.10;99.90;;;;;;4872650;29;20033;-72
2021/09/25 01:43:50;;;;;;;7.75;4.47;;;16.00;99.90;;;;;;4889885;29;20128;-73
2021/09/25 01:46:18;;;;;;;11.63;4.50;;;16.10;99.90;;;;;;4889698;29;20113;-74
2021/09/25 01:48:44;;;;;;;8.05;4.65;;;15.90;99.90;;;;;;4889524;29;20033;-75
2021/09/25 01:51:10;;;;;;;22.55;5.15;;;15.90;99.90;;;;;;4872949;29;20037;-73
2021/09/25 01:53:37;;;;;;;10.77;4.72;;;16.00;99.90;;;;;;4890058;29;20096;-74
2021/09/25 01:56:13;;;;;;;8.32;4.50;;;15.90;99.90;;;;;;4889984;29;20040;-73
2021/09/25 01:58:39;;;;;;;9.55;5.00;;;15.90;99.90;;;;;;4892791;29;20045;-74
2021/09/25 02:01:06;;;;;;;8.77;4.90;;;15.90;99.90;;;;;;4893355;29;20039;-74
2021/09/25 02:03:35;;;;;;;13.68;5.40;;;15.80;99.90;;;;;;4892579;29;20105;-73
2021/09/25 02:06:07;;;;;;;15.02;5.90;;;15.80;99.90;;;;;;4893497;29;20045;-74
2021/09/25 02:08:33;;;;;;;12.23;4.97;;;15.90;99.90;;;;;;4893151;29;20501;-75
2021/09/25 02:10:59;;;;;;;7.25;4.00;;;15.90;99.90;;;;;;4892870;29;20029;-74
2021/09/25 02:13:26;;;;;;;15.65;5.18;;;15.90;99.90;;;;;;4893013;29;20548;-75
2021/09/25 02:15:52;;;;;;;7.28;4.35;;;15.90;99.90;;;;;;4875973;29;20037;-74
2021/09/25 02:18:18;;;;;;;10.25;5.05;;;15.90;99.90;;;;;;4892550;29;20033;-74
2021/09/25 02:20:44;;;;;;;10.40;4.53;;;15.80;99.90;;;;;;4892874;29;20074;-73
2021/09/25 02:23:11;;;;;;;9.65;5.03;;;15.80;99.90;;;;;;4892420;29;20032;-73
2021/09/25 02:25:37;;;;;;;8.48;4.40;;;15.80;99.90;;;;;;4892780;29;20045;-74
2021/09/25 02:28:03;;;;;;;8.15;4.78;;;15.80;99.90;;;;;;4876155;29;20033;-75
2021/09/25 02:30:29;;;;;;;9.07;4.53;;;15.80;99.90;;;;;;4891763;29;20021;-73
2021/09/25 02:32:55;;;;;;;9.23;4.72;;;15.80;99.90;;;;;;4891268;29;20108;-74
2021/09/25 02:35:22;;;;;;;9.50;4.85;;;15.80;99.90;;;;;;4892429;29;20033;-73
2021/09/25 02:37:49;;;;;;;11.45;4.60;;;15.90;99.90;;;;;;4891585;29;20032;-74
2021/09/25 02:40:16;;;;;;;8.88;4.43;;;15.80;99.90;;;;;;4875357;29;20489;-75
2021/09/25 02:42:44;;;;;;;12.23;5.07;;;15.80;99.90;;;;;;4891996;29;20101;-73
2021/09/25 02:45:12;;;;;;;15.50;5.10;;;15.80;99.90;;;;;;4892006;29;20033;-73
2021/09/25 02:47:38;;;;;;;9.52;4.35;;;15.80;99.90;;;;;;4875722;29;20044;-74
2021/09/25 02:50:06;;;;;;;12.27;5.35;;;15.70;99.90;;;;;;4892366;29;20057;-74
2021/09/25 02:52:32;;;;;;;13.75;6.35;;;15.80;99.90;;;;;;4892030;29;20040;-74
2021/09/25 02:54:57;;;;;;;7.18;4.38;;;15.80;99.90;;;;;;4892469;29;20041;-73
2021/09/25 02:57:23;;;;;;;7.57;4.68;;;15.80;99.90;;;;;;4892072;29;20036;-73
2021/09/25 02:59:48;;;;;;;12.00;5.07;;;15.80;99.90;;;;;;4891641;29;20029;-73
2021/09/25 03:02:14;;;;;;;12.80;4.60;;;15.70;99.90;;;;;;4892247;29;20036;-74
2021/09/25 03:04:39;;;;;;;8.20;4.30;;;15.70;99.90;;;;;;4875163;29;20041;-74
2021/09/25 03:07:07;;;;;;;15.85;4.80;;;15.70;99.90;;;;;;4891999;29;20044;-73
2021/09/25 03:09:33;;;;;;;9.13;5.30;;;15.70;99.90;;;;;;4891744;29;20061;-73
2021/09/25 03:11:58;;;;;;;14.10;6.00;;;15.70;99.90;;;;;;4891240;29;20017;-73
2021/09/25 03:14:24;;;;;;;11.40;4.88;;;15.70;99.90;;;;;;4891679;29;20037;-74
2021/09/25 03:16:50;;;;;;;14.25;4.90;;;15.70;99.90;;;;;;4891759;29;20034;-73
2021/09/25 03:19:24;;;;;;;8.57;4.43;;;15.70;99.90;;;;;;4891387;29;20029;-73
2021/09/25 03:21:50;;;;;;;;;;;15.80;99.90;;;;;;4891750;29;20037;-74
2021/09/25 03:24:16;;;;;;;10.25;4.47;;;15.70;99.90;;;;;;4891621;29;19915;-73
2021/09/25 03:26:42;;;;;;;7.97;4.10;;;15.70;99.90;;;;;;4891353;29;20037;-73
2021/09/25 03:29:08;;;;;;;8.75;3.72;;;15.70;99.90;;;;;;4891347;29;20081;-73
2021/09/25 03:31:34;;;;;;;9.52;4.60;;;15.70;99.90;;;;;;4891515;29;20045;-73
2021/09/25 03:33:59;;;;;;;11.73;4.90;;;15.70;99.90;;;;;;4891462;29;20437;-74
2021/09/25 03:36:25;;;;;;;12.07;3.42;;;15.70;99.90;;;;;;4891134;29;20037;-75
2021/09/25 03:38:51;;;;;;;8.77;4.10;;;15.80;99.90;;;;;;4891427;29;20416;-74
2021/09/25 03:41:16;;;;;;;7.65;3.90;;;15.70;99.90;;;;;;4891021;29;20389;-73
2021/09/25 03:43:42;;;;;;;12.60;3.63;;;15.70;99.90;;;;;;4891476;29;20029;-74
2021/09/25 03:46:08;;;;;;;5.95;3.50;;;15.70;99.90;;;;;;4891299;29;20053;-74
2021/09/25 03:48:34;;;;;;;8.68;4.07;;;15.70;99.90;;;;;;4874232;29;20131;-73
2021/09/25 03:50:59;;;;;;;22.08;4.43;;;15.70;99.90;;;;;;4891192;29;20045;-73
2021/09/25 03:53:25;;;;;;;10.63;4.32;;;15.80;99.90;;;;;;4890401;29;20045;-74
2021/09/25 03:55:51;;;;;;;10.23;3.65;;;15.70;99.90;;;;;;4874024;29;20099;-73
2021/09/25 03:58:17;;;;;;;8.23;4.32;;;15.70;99.90;;;;;;4891272;29;20092;-74
2021/09/25 04:00:42;;;;;;;7.63;4.15;;;15.70;99.90;;;;;;4873977;29;20029;-73
2021/09/25 04:03:12;;;;;;;18.90;3.90;;;15.80;99.90;;;;;;4874110;29;20066;-74
2021/09/25 04:05:39;;;;;;;9.43;3.22;;;15.80;99.90;;;;;;4874519;29;20056;-75
2021/09/25 04:08:06;;;;;;;7.68;4.13;;;15.70;99.90;;;;;;4890823;29;20029;-74
2021/09/25 04:10:32;;;;;;;7.30;3.35;;;15.80;99.90;;;;;;4890825;29;20093;-74
2021/09/25 04:12:58;;;;;;;11.88;4.25;;;15.70;99.90;;;;;;4890586;29;20037;-74
2021/09/25 04:15:25;;;;;;;13.55;3.65;;;15.80;99.90;;;;;;4890323;29;20600;-74
2021/09/25 04:17:51;;;;;;;11.63;4.60;;;15.80;99.90;;;;;;4890921;29;20029;-74
2021/09/25 04:20:19;;;;;;;6.50;3.45;;;15.80;99.90;;;;;;4889903;29;20029;-74
2021/09/25 04:22:46;;;;;;;13.52;3.38;;;15.80;99.90;;;;;;4890378;29;20033;-74
2021/09/25 04:25:11;;;;;;;8.20;4.05;;;15.80;99.90;;;;;;4873501;29;20398;-74
2021/09/25 04:27:37;;;;;;;13.20;4.15;;;15.90;99.90;;;;;;4890050;29;20033;-74
2021/09/25 04:30:04;;;;;;;13.57;4.35;;;15.80;99.90;;;;;;4890004;29;20510;-74
2021/09/25 04:32:30;;;;;;;10.15;3.60;;;15.90;99.90;;;;;;4890475;29;20045;-74
2021/09/25 04:34:56;;;;;;;12.32;3.95;;;15.90;99.90;;;;;;4890615;29;20096;-74
2021/09/25 04:37:22;;;;;;;9.50;3.38;;;15.90;99.90;;;;;;4890249;29;20029;-74
2021/09/25 04:39:47;;;;;;;20.27;3.45;;;15.90;99.90;;;;;;4890739;29;20039;-74
2021/09/25 04:42:14;;;;;;;6.22;3.55;;;15.80;99.90;;;;;;4873206;29;20097;-74
2021/09/25 04:44:43;;;;;;;5.82;3.30;;;16.00;99.90;;;;;;4873282;29;20056;-77
2021/09/25 04:47:09;;;;;;;16.20;3.85;;;15.90;99.90;;;;;;4890567;29;20033;-75
2021/09/25 04:49:35;;;;;;;8.18;3.70;;;15.90;99.90;;;;;;4890374;29;20105;-74
2021/09/25 04:52:00;;;;;;;15.93;4.65;;;15.90;99.90;;;;;;4890470;29;20052;-74
2021/09/25 04:54:26;;;;;;;11.23;3.70;;;15.90;99.90;;;;;;4889542;29;20025;-73
2021/09/25 04:56:52;;;;;;;14.88;4.38;;;15.90;99.90;;;;;;4889783;29;20135;-72
2021/09/25 04:59:17;;;;;;;11.00;3.97;;;15.90;99.90;;;;;;4890183;29;20085;-74
2021/09/25 05:01:43;;;;;;;6.57;3.38;;;15.90;99.90;;;;;;4888630;29;20037;-73
2021/09/25 05:04:10;;;;;;;12.88;4.88;;;15.90;99.90;;;;;;4890011;29;20081;-75
2021/09/25 05:06:36;;;;;;;9.70;3.78;;;15.80;99.90;;;;;;4873612;29;20047;-73
2021/09/25 05:09:02;;;;;;;10.38;4.05;;;15.80;99.90;;;;;;4890611;29;20049;-74
2021/09/25 05:11:28;;;;;;;9.98;4.20;;;15.80;99.90;;;;;;4872970;29;20029;-73
2021/09/25 05:13:54;;;;;;;9.95;4.25;;;15.80;99.90;;;;;;4890140;29;20089;-73
2021/09/25 05:16:20;;;;;;;14.23;4.30;;;15.80;99.90;;;;;;4889969;29;20017;-73
2021/09/25 05:18:45;;;;;;;13.15;3.55;;;15.80;99.90;;;;;;4886836;29;20343;-74
2021/09/25 05:21:11;;;;;;;11.00;4.32;;;15.80;99.90;;;;;;4887105;29;20082;-73
2021/09/25 05:23:37;;;;;;;7.07;3.85;;;15.90;99.90;;;;;;4889384;29;20041;-72
2021/09/25 05:26:04;;;;;;;13.18;5.25;;;15.80;99.90;;;;;;4889434;29;20046;-73
2021/09/25 05:28:32;;;;;;;15.13;4.22;;;15.80;99.90;;;;;;4889919;29;20441;-73
2021/09/25 05:30:58;;;;;;;10.70;4.68;;;15.80;99.90;;;;;;4868294;29;20072;-73
2021/09/25 05:33:24;;;;;;;21.15;4.50;;;15.80;99.90;;;;;;4874648;29;20533;-74
2021/09/25 05:35:49;;;;;;;14.25;4.82;;;15.70;99.90;;;;;;4874650;29;20037;-74
2021/09/25 05:38:15;;;;;;;8.77;4.55;;;15.80;99.90;;;;;;4874284;29;20359;-74
2021/09/25 05:40:47;;;;;;;6.32;3.80;;;15.70;99.90;;;;;;4874392;29;20033;-74
2021/09/25 05:43:13;;;;;;;10.13;4.75;;;15.80;99.90;;;;;;4870585;29;20048;-74
2021/09/25 05:45:38;;;;;;;13.52;4.90;;;15.70;99.90;;;;;;4874317;29;20041;-74
2021/09/25 05:48:04;;;;;;;13.38;5.43;;;15.80;99.90;;;;;;4874408;29;20029;-74
2021/09/25 05:50:30;;;;;;;11.82;5.10;;;15.80;99.90;;;;;;4874710;29;20033;-73
2021/09/25 05:52:55;;;;;;;13.13;5.20;;;15.80;99.90;;;;;;4866902;29;20392;-74
2021/09/25 05:55:22;;;;;;;13.18;4.25;;;15.90;99.90;;;;;;4863554;29;20037;-73
2021/09/25 05:57:47;;;;;;;11.52;4.43;;;15.70;99.90;;;;;;4862775;29;20037;-75
2021/09/25 06:00:14;;;;;;;9.02;4.53;;;15.90;99.90;;;;;;4872161;29;20030;-76
2021/09/25 06:02:40;;;;;;;15.95;5.68;;;15.80;99.90;;;;;;4865476;29;20037;-74
2021/09/25 06:05:08;;;;;;;9.35;4.30;;;15.90;99.90;;;;;;4866225;29;20045;-74
2021/09/25 06:07:35;;;;;;;11.73;4.82;;;15.80;99.90;;;;;;4863183;29;20049;-73
2021/09/25 06:10:03;;;;;;;12.35;4.72;;;15.90;99.90;;;;;;4863471;29;20463;-74
2021/09/25 06:12:28;;;;;;;16.85;4.60;;;15.90;99.90;;;;;;4854550;29;20052;-74
2021/09/25 06:14:55;;;;;;;18.10;4.53;;;16.00;99.90;;;;;;4871616;29;20049;-75
2021/09/25 06:17:21;;;;;;;11.35;5.32;;;16.10;99.90;;;;;;4873680;29;20531;-75
2021/09/25 06:19:47;;;;;;;12.25;4.60;;;15.90;99.90;;;;;;4870374;29;20087;-76
2021/09/25 06:22:12;;;;;;;17.40;4.40;;;16.00;99.90;;;;;;4873175;29;20033;-75
2021/09/25 06:24:38;;;;;;;17.90;5.35;;;15.90;99.90;;;;;;4873535;29;20033;-76
2021/09/25 06:27:04;;;;;;;14.88;5.00;;;15.90;99.90;;;;;;4871705;29;20029;-75
2021/09/25 06:29:30;;;;;;;13.60;4.63;;;16.00;99.90;;;;;;4869202;29;20042;-75
2021/09/25 06:32:05;;;;;;;14.10;4.53;;;16.10;99.90;;;;;;4873857;29;20061;-74
2021/09/25 06:34:34;;;;;;;13.43;4.18;;;16.00;99.90;;;;;;4874904;29;20033;-76
2021/09/25 06:36:59;;;;;;;11.90;4.22;;;16.10;99.90;;;;;;4885750;29;20033;-74
2021/09/25 06:39:25;;;;;;;35.22;7.07;;;16.00;99.90;;;;;;4885082;29;20033;-76
2021/09/25 06:41:50;;;;;;;11.45;4.30;;;16.10;99.90;;;;;;4891387;29;20040;-75
2021/09/25 06:44:17;;;;;;;12.35;4.63;;;16.10;99.90;;;;;;4890006;29;20072;-74
2021/09/25 06:46:42;;;;;;;17.88;6.35;;;16.10;99.90;;;;;;4892232;29;20033;-74
2021/09/25 06:49:08;;;;;;;14.27;5.13;;;16.20;99.90;;;;;;4892118;29;20131;-74
2021/09/25 06:51:34;;;;;;;15.43;4.82;;;16.20;99.90;;;;;;4892336;29;20473;-74
2021/09/25 06:54:00;;;;;;;15.32;5.30;;;16.20;99.90;;;;;;4891931;29;20037;-74
2021/09/25 06:56:25;;;;;;;13.60;4.88;;;16.30;99.90;;;;;;4891690;29;20557;-75
2021/09/25 06:58:51;;;;;;;17.08;5.88;;;16.30;99.90;;;;;;4892368;29;20044;-74
2021/09/25 07:01:17;;;;;;;12.20;5.13;;;16.30;99.90;;;;;;4891635;29;20037;-74
2021/09/25 07:03:42;;;;;;;17.02;5.85;;;16.30;99.90;;;;;;4892202;29;20040;-74
2021/09/25 07:06:08;;;;;;;14.60;6.45;;;16.50;99.90;;;;;;4891638;29;20052;-74
2021/09/25 07:08:34;;;;;;;18.02;6.15;;;16.40;99.90;;;;;;4891614;29;20767;-74
2021/09/25 07:10:59;;;;;;;22.38;5.72;;;16.40;99.90;;;;;;4891634;29;20482;-74
2021/09/25 07:13:25;;;;;;;16.15;5.60;;;16.40;99.90;;;;;;4891672;29;20033;-74
2021/09/25 07:15:51;;;;;;;16.63;6.35;;;16.50;99.90;;;;;;4890559;29;20036;-76
2021/09/25 07:18:17;;;;;;;14.07;5.53;;;16.60;99.90;;;;;;4891384;29;20036;-74
2021/09/25 07:20:43;;;;;;;11.07;5.45;;;16.70;99.90;;;;;;4875921;29;20061;-76
2021/09/25 07:23:09;;;;;;;20.80;5.90;;;16.80;99.90;;;;;;4873080;29;20033;-74
2021/09/25 07:25:37;;;;;;;17.92;5.85;;;16.80;99.90;;;;;;4873185;29;20041;-73
2021/09/25 07:28:04;;;;;;;13.98;5.32;;;16.90;99.90;;;;;;4876736;29;20033;-79
2021/09/25 07:30:31;;;;;;;11.93;5.40;;;17.00;99.90;;;;;;4891365;29;20040;-73
2021/09/25 07:32:58;;;;;;;14.70;6.30;;;17.10;99.90;;;;;;4891266;29;20072;-74
2021/09/25 07:35:24;;;;;;;13.35;5.65;;;17.10;99.90;;;;;;4874405;29;20478;-74
2021/09/25 07:37:49;;;;;;;27.63;6.10;;;17.10;99.90;;;;;;4872374;29;20029;-75
2021/09/25 07:40:15;;;;;;;12.95;5.00;;;17.20;99.90;;;;;;4873050;29;20032;-73
2021/09/25 07:42:41;;;;;;;10.82;5.35;;;17.20;99.90;;;;;;4872898;29;20074;-75
2021/09/25 07:45:08;;;;;;;24.77;6.95;;;17.20;99.90;;;;;;4872476;29;20502;-75
2021/09/25 07:47:36;;;;;;;12.45;6.53;;;17.20;99.90;;;;;;4872160;29;20022;-75
2021/09/25 07:50:03;;;;;;;16.67;5.50;;;17.30;99.90;;;;;;4872760;29;20036;-75
2021/09/25 07:52:29;;;;;;;12.75;4.75;;;17.30;99.90;;;;;;4871043;29;20494;-73
2021/09/25 07:54:55;;;;;;;17.38;6.45;;;17.40;99.90;;;;;;4872276;29;20041;-73
2021/09/25 07:57:21;;;;;;;17.52;7.22;;;17.30;99.90;;;;;;4884934;29;20029;-73
2021/09/25 07:59:46;;;;;;;12.20;5.65;;;17.50;99.90;;;;;;4890769;29;20025;-75
2021/09/25 08:02:12;;;;;;;23.63;6.55;;;17.50;99.90;;;;;;4891017;29;20463;-73
2021/09/25 08:04:37;;;;;;;17.52;6.20;;;17.50;99.90;;;;;;4890862;29;20076;-74
2021/09/25 08:07:04;;;;;;;16.10;5.85;;;17.60;99.90;;;;;;4889235;29;20045;-73
2021/09/25 08:09:30;;;;;;;17.13;6.38;;;17.60;99.90;;;;;;4888167;29;20033;-74
2021/09/25 08:11:56;;;;;;;12.80;5.95;;;17.70;99.90;;;;;;4889295;29;20095;-74
2021/09/25 08:14:21;;;;;;;11.02;5.68;;;17.80;99.90;;;;;;4890133;29;20497;-74
2021/09/25 08:16:47;;;;;;;15.88;6.00;;;17.90;99.90;;;;;;4890044;29;20037;-73
2021/09/25 08:19:13;;;;;;;9.73;5.25;;;18.00;99.90;;;;;;4873703;29;20037;-74
2021/09/25 08:21:39;;;;;;;14.80;5.80;;;18.10;99.90;;;;;;4890321;29;20037;-71
2021/09/25 08:24:04;;;;;;;16.05;5.97;;;18.20;99.90;;;;;;4875371;29;20043;-72
2021/09/25 08:26:31;;;;;;;13.85;6.05;;;18.20;99.90;;;;;;4871740;29;20060;-72
2021/09/25 08:28:56;;;;;;;23.45;6.63;;;18.30;99.90;;;;;;4871912;29;20032;-71
2021/09/25 08:31:22;;;;;;;17.45;6.00;;;18.30;99.90;;;;;;4871752;29;20049;-73
2021/09/25 08:33:48;;;;;;;14.35;5.35;;;18.40;99.90;;;;;;4874927;29;20029;-74
2021/09/25 08:36:14;;;;;;;15.23;5.50;;;18.40;99.90;;;;;;4879591;29;20501;-75
2021/09/25 08:38:39;;;;;;;15.85;6.13;;;18.50;99.90;;;;;;4884987;29;20037;-74
2021/09/25 08:41:06;;;;;;;16.42;5.97;;;18.40;99.90;;;;;;4873554;29;20043;-76
2021/09/25 08:43:31;;;;;;;25.13;6.63;;;18.60;99.90;;;;;;4873489;29;20033;-74
2021/09/25 08:46:01;;;;;;;20.08;5.90;;;18.70;99.90;;;;;;4876950;29;20540;-75
2021/09/25 08:48:28;;;;;;;14.30;5.75;;;18.80;99.90;;;;;;4890080;29;20036;-74
2021/09/25 08:50:54;;;;;;;9.98;4.88;;;18.90;99.90;;;;;;4873834;29;20533;-73
2021/09/25 08:53:36;;;;;;;11.25;6.22;;;19.00;99.90;;;;;;4886192;29;20037;-76
2021/09/25 08:56:04;;;;;;;13.13;6.15;;;19.10;99.90;;;;;;4882391;29;20113;-76
2021/09/25 08:58:30;;;;;;;13.05;5.43;;;19.10;99.90;;;;;;4884629;29;20029;-73
2021/09/25 09:00:56;;;;;;;14.55;6.28;;;19.20;99.90;;;;;;4873663;29;20044;-74
2021/09/25 09:03:31;;;;;;;16.05;5.68;;;19.20;99.90;;;;;;4880187;29;20033;-74
2021/09/25 09:06:11;;;;;;;17.67;6.07;;;19.30;99.90;;;;;;4882258;29;20037;-75
2021/09/25 09:08:38;;;;;;;20.60;6.90;;;19.40;99.90;;;;;;4896495;29;20029;-74
2021/09/25 09:11:07;;;;;;;13.73;5.45;;;19.50;99.90;;;;;;4886905;29;20029;-73
2021/09/25 09:13:37;;;;;;;11.48;5.65;;;19.70;99.90;;;;;;4886037;29;20029;-76
2021/09/25 09:16:06;;;;;;;13.32;5.90;;;19.70;99.90;;;;;;4892046;29;20622;-74
2021/09/25 09:18:38;;;;;;;16.15;5.50;;;19.80;99.90;;;;;;4886386;29;20037;-73
2021/09/25 09:21:18;;;;;;;11.60;5.68;;;19.80;99.90;;;;;;4889322;29;20040;-76
2021/09/25 09:23:45;;;;;;;10.45;5.00;;;20.00;99.90;;;;;;4885492;29;20033;-75
2021/09/25 09:26:15;;;;;;;9.48;5.35;;;20.00;99.90;;;;;;4881196;29;20129;-74
2021/09/25 09:28:40;;;;;;;15.05;5.57;;;20.00;99.90;;;;;;4877589;29;20059;-72
2021/09/25 09:31:09;;;;;;;22.35;5.68;;;19.90;99.90;;;;;;4876395;29;20061;-72
2021/09/25 09:33:37;;;;;;;13.68;5.10;;;19.90;99.90;;;;;;4877558;29;20030;-72
2021/09/25 09:36:11;;;;;;;10.75;5.90;;;20.00;99.90;;;;;;4876730;29;20386;-73
2021/09/25 09:38:49;;;;;;;11.48;4.97;;;20.20;99.90;;;;;;4876993;29;20364;-75
2021/09/25 09:41:15;;;;;;;14.63;4.78;;;20.20;99.90;;;;;;4876332;29;20029;-72
2021/09/25 09:43:41;;;;;;;9.85;4.65;;;20.30;99.90;;;;;;4881842;29;20029;-78
2021/09/25 09:46:09;;;;;;;10.93;5.05;;;20.40;99.90;;;;;;4888782;29;20818;-73
2021/09/25 09:48:35;;;;;;;9.52;4.05;;;20.50;99.90;;;;;;4891071;29;20033;-73
2021/09/25 09:51:01;;;;;;;12.13;4.30;;;20.60;99.90;;;;;;4889258;29;20057;-71
2021/09/25 09:53:30;;;;;;;13.05;4.18;;;20.60;99.90;;;;;;4893466;29;20033;-72
2021/09/25 09:56:20;;;;;;;10.80;4.40;;;20.50;99.90;;;;;;4894702;29;20040;-70
2021/09/25 09:59:04;;;;;;;4.70;3.10;;;20.40;99.90;;;;;;4883817;29;20108;-73
2021/09/25 10:01:30;;;;;;;10.77;3.67;;;20.50;99.90;;;;;;4892763;29;20390;-73
2021/09/25 10:03:58;;;;;;;7.20;3.50;;;20.60;99.90;;;;;;4889347;29;20036;-73
2021/09/25 10:06:23;;;;;;;10.70;4.03;;;20.50;99.90;;;;;;4886499;29;20051;-72
2021/09/25 10:08:49;;;;;;;13.27;3.58;;;20.50;99.90;;;;;;4890741;29;20073;-73
2021/09/25 10:11:18;;;;;;;9.80;4.18;;;20.50;99.90;;;;;;4887551;29;20037;-73
2021/09/25 10:13:44;;;;;;;8.20;3.65;;;20.60;99.90;;;;;;4895159;29;20395;-72
2021/09/25 10:16:11;;;;;;;9.43;4.10;;;20.70;99.90;;;;;;4895078;29;20085;-73
2021/09/25 10:18:38;;;;;;;12.00;3.58;;;20.80;99.90;;;;;;4893503;29;20081;-74
2021/09/25 10:21:07;;;;;;;14.95;3.40;;;20.90;99.90;;;;;;4891391;29;20032;-74
2021/09/25 10:23:34;;;;;;;8.68;3.92;;;21.00;99.90;;;;;;4891370;29;20122;-73
2021/09/25 10:26:00;;;;;;;9.93;3.53;;;21.00;99.90;;;;;;4889970;29;20133;-74
2021/09/25 10:28:29;;;;;;;12.80;3.50;;;21.20;99.90;;;;;;4875994;29;20030;-72
2021/09/25 10:30:55;;;;;;;9.77;3.13;;;21.40;99.90;;;;;;4883262;29;20546;-72
2021/09/25 10:33:22;;;;;;;6.40;2.90;;;21.30;99.90;;;;;;4877957;29;20037;-73
2021/09/25 10:35:53;;;;;;;5.15;2.35;;;21.40;99.90;;;;;;4886400;29;20074;-72
2021/09/25 10:38:38;;;;;;;5.10;2.50;;;21.60;99.90;;;;;;4882225;29;20047;-75
2021/09/25 10:41:15;;;;;;;6.35;2.97;;;21.80;99.90;;;;;;4875363;29;20592;-74
2021/09/25 10:43:43;;;;;;;5.53;3.05;;;21.90;99.90;;;;;;4874112;29;20074;-79
2021/09/25 10:46:10;;;;;;;12.10;2.90;;;21.90;99.90;;;;;;4884814;29;20062;-75
2021/09/25 10:48:51;;;;;;;5.82;2.50;;;21.80;99.90;;;;;;4889037;29;20045;-73
2021/09/25 10:51:20;;;;;;;9.32;3.05;;;21.70;99.90;;;;;;4883048;29;20084;-73
2021/09/25 10:53:48;;;;;;;8.57;3.55;;;21.70;99.90;;;;;;4884903;29;20049;-72
2021/09/25 10:56:18;;;;;;;5.13;2.65;;;21.60;99.90;;;;;;4873520;29;20498;-76
2021/09/25 10:58:58;;;;;;;6.38;3.10;;;21.50;99.90;;;;;;4880703;29;20032;-74
2021/09/25 11:01:35;;;;;;;4.28;2.55;;;21.40;99.90;;;;;;4891973;29;20029;-71
2021/09/25 11:04:04;;;;;;;6.22;2.22;;;21.30;99.90;;;;;;4892039;29;20033;-73
2021/09/25 11:06:39;;;;;;;4.38;2.58;;;21.30;99.90;;;;;;4891651;29;20092;-75
2021/09/25 11:09:28;;;;;;;8.98;2.72;;;21.20;99.90;;;;;;4891427;29;20037;-73
2021/09/25 11:12:09;;;;;;;9.80;3.25;;;21.10;99.90;;;;;;4891536;29;20037;-72
2021/09/25 11:14:41;;;;;;;16.08;2.97;;;21.10;99.90;;;;;;4892211;29;20029;-74
2021/09/25 11:17:14;;;;;;;6.07;2.80;;;21.00;99.90;;;;;;4871980;29;20518;-73
2021/09/25 11:20:03;;;;;;;9.30;2.93;;;21.00;99.90;;;;;;4873336;29;20033;-73
2021/09/25 11:22:43;;;;;;;6.28;2.47;;;21.00;99.90;;;;;;4873241;29;20041;-73
2021/09/25 11:25:14;;;;;;;3.67;2.53;;;21.00;99.90;;;;;;4873209;29;20057;-74
2021/09/25 11:27:46;;;;;;;7.72;2.45;;;21.00;99.90;;;;;;4873035;29;20486;-74
2021/09/25 11:30:13;;;;;;;4.28;2.80;;;21.00;99.90;;;;;;4871017;29;20037;-74
2021/09/25 11:32:57;;;;;;;4.40;2.72;;;21.00;99.90;;;;;;4872765;29;20046;-72
2021/09/25 11:35:23;;;;;;;7.13;3.28;;;21.00;99.90;;;;;;4872835;29;20039;-74
2021/09/25 11:38:08;;;;;;;3.70;2.08;;;21.00;99.90;;;;;;4872733;29;20040;-72
2021/09/25 11:40:46;;;;;;;7.47;3.13;;;21.00;99.90;;;;;;4873089;29;20030;-71
2021/09/25 11:43:16;;;;;;;5.03;3.28;;;20.90;99.90;;;;;;4872857;29;20042;-73
2021/09/25 11:45:48;;;;;;;4.15;2.60;;;20.90;99.90;;;;;;4872814;29;20057;-73
2021/09/25 11:48:18;;;;;;;10.73;3.30;;;20.80;99.90;;;;;;4878470;29;20114;-75
2021/09/25 11:50:47;;;;;;;4.43;2.97;;;20.80;99.90;;;;;;4879225;29;20041;-72
2021/09/25 11:53:15;;;;;;;7.68;3.70;;;20.70;99.90;;;;;;4883939;29;20033;-74
2021/09/25 11:55:43;;;;;;;11.35;3.72;;;20.70;99.90;;;;;;4882230;29;20025;-74
2021/09/25 11:58:17;;;;;;;11.45;3.42;;;20.60;99.90;;;;;;4881753;29;20045;-74
2021/09/25 12:00:51;;;;;;;5.97;3.25;;;20.70;99.90;;;;;;4891146;29;20041;-73
2021/09/25 12:03:19;;;;;;;6.28;3.30;;;20.70;99.90;;;;;;4890645;29;20025;-72
2021/09/25 12:05:48;;;;;;;8.85;3.60;;;20.70;99.90;;;;;;4889454;29;20089;-72
2021/09/25 12:08:23;;;;;;;9.20;3.75;;;20.70;99.90;;;;;;4882095;29;20750;-73
2021/09/25 12:11:11;;;;;;;11.05;4.10;;;20.80;99.90;;;;;;4861300;29;20037;-75
2021/09/25 12:13:46;;;;;;;8.77;3.40;;;20.90;99.90;;;;;;4875436;29;20065;-73
2021/09/25 12:16:17;;;;;;;5.55;3.10;;;20.90;99.90;;;;;;4871380;29;20037;-74
2021/09/25 12:18:47;;;;;;;7.78;3.47;;;20.90;99.90;;;;;;4876995;29;20059;-73
2021/09/25 12:24:09;;;;;;;5.95;3.17;;;21.00;99.90;;;;;;4901909;24;20483;-74
2021/09/25 12:26:42;;;;;;;7.47;3.15;;;20.90;99.90;;;;;;4904108;29;20076;-75
2021/09/25 12:29:13;;;;;;;8.07;3.70;;;20.90;99.90;;;;;;4882460;29;20052;-74
2021/09/25 12:31:39;;;;;;;13.13;4.00;;;20.90;99.90;;;;;;4897844;29;20065;-73
2021/09/25 12:34:12;;;;;;;9.18;4.07;;;20.80;99.90;;;;;;4903314;29;20060;-72
2021/09/25 12:36:45;;;;;;;10.32;4.90;;;20.80;99.90;;;;;;4901567;29;20032;-72
2021/09/25 12:39:12;;;;;;;10.65;3.85;;;20.70;99.90;;;;;;4895763;29;20060;-74
2021/09/25 12:41:43;;;;;;;11.85;3.92;;;20.60;99.90;;;;;;4897313;29;20029;-75
2021/09/25 12:44:09;;;;;;;13.93;3.92;;;20.60;99.90;;;;;;4889671;29;20446;-73
2021/09/25 12:46:45;;;;;;;6.72;4.03;;;20.50;99.90;;;;;;4900741;29;20040;-73